Terminal Aerodrome Forecast
Issued by NWS Springfield, MO

Home | Current Version | Previous Version | Text Only | Print | Product List | Glossary On
Versions: 1 2 3 4 5 6 7 8 9 10 11 12 13 14 15 16 17 18 19
000
FTUS43 KSGF 161700
TAFSGF
TAF
KSGF 161730Z 1618/1718 VRB03KT P6SM BKN009
     FM161930 11006KT P6SM BKN020
     FM162200 11005KT P6SM SCT250
     FM170600 14006KT 4SM BR SCT250
     FM170800 14006KT 3SM BR OVC001
     FM171600 14009KT P6SM BKN050=

USA.gov is the U.S. government's official web portal to all federal, state and local government web resources and services.